createdAt,value
2019-02-16T00:01:27.174Z,116.82
2019-02-16T00:06:30.207Z,110.83
2019-02-16T00:11:33.201Z,103.12
2019-02-16T00:16:36.344Z,113.17
2019-02-16T00:21:39.357Z,101.78
2019-02-16T00:26:42.471Z,94.10
2019-02-16T00:31:45.494Z,87.15
2019-02-16T00:36:48.766Z,81.60
2019-02-16T00:41:51.994Z,74.85
2019-02-16T00:46:55.151Z,70.22
2019-02-16T00:51:58.154Z,65.32
2019-02-16T00:57:01.226Z,69.42
2019-02-16T01:02:04.161Z,60.28
2019-02-16T01:07:07.243Z,57.45
2019-02-16T01:12:10.546Z,56.05
2019-02-16T01:17:13.706Z,48.92
2019-02-16T01:22:16.681Z,47.88
2019-02-16T01:27:19.668Z,46.15
2019-02-16T01:32:22.814Z,46.15
2019-02-16T01:37:25.775Z,45.43
2019-02-16T01:42:28.931Z,43.33
2019-02-16T01:47:31.892Z,39.20
2019-02-16T01:52:35.076Z,41.58
2019-02-16T01:57:37.998Z,39.00
2019-02-16T02:02:41.055Z,36.85
2019-02-16T02:07:44.062Z,35.25
2019-02-16T02:12:47.054Z,35.33
2019-02-16T02:17:50.045Z,33.05
2019-02-16T02:22:53.055Z,31.95
2019-02-16T02:27:56.159Z,34.58
2019-02-16T02:32:59.352Z,31.93
2019-02-16T02:38:02.474Z,30.70
2019-02-16T02:43:05.534Z,31.02
2019-02-16T02:48:08.889Z,29.17
2019-02-16T02:53:12.152Z,29.48
2019-02-16T02:58:15.236Z,28.32
2019-02-16T03:03:18.177Z,27.87
2019-02-16T03:08:21.533Z,29.10
2019-02-16T03:13:24.456Z,27.90
2019-02-16T03:18:27.730Z,26.30
2019-02-16T03:23:31.525Z,26.40
2019-02-16T03:29:33.553Z,26.00
2019-02-16T03:34:50.818Z,26.45
2019-02-16T03:39:53.755Z,28.25
2019-02-16T03:44:56.842Z,26.87
2019-02-16T03:49:59.777Z,26.40
2019-02-16T03:55:02.915Z,24.32
2019-02-16T04:00:06.975Z,24.77
2019-02-16T04:05:09.898Z,24.20
2019-02-16T04:10:12.848Z,24.98
2019-02-16T04:15:16.045Z,27.27
2019-02-16T04:20:19.081Z,23.73
2019-02-16T04:25:22.124Z,24.07
2019-02-16T04:30:25.086Z,24.47
2019-02-16T04:35:28.075Z,23.25
2019-02-16T04:40:31.329Z,24.50
2019-02-16T04:45:34.362Z,23.75
2019-02-16T04:50:37.298Z,24.25
2019-02-16T04:55:40.294Z,23.38
2019-02-16T05:00:43.366Z,26.27
2019-02-16T05:05:46.463Z,25.62
2019-02-16T05:10:49.437Z,25.68
2019-02-16T05:15:52.407Z,24.00
2019-02-16T05:20:55.368Z,23.50
2019-02-16T05:25:58.558Z,23.65
2019-02-16T05:31:01.524Z,23.65
2019-02-16T05:36:04.566Z,24.77
2019-02-16T05:41:07.549Z,22.90
2019-02-16T05:46:10.540Z,24.37
2019-02-16T05:51:13.626Z,26.85
2019-02-16T05:56:16.825Z,25.02
2019-02-16T06:01:19.792Z,24.32
2019-02-16T06:06:22.760Z,25.30
2019-02-16T06:11:25.795Z,25.00
2019-02-16T06:16:29.132Z,23.87
2019-02-16T06:21:32.083Z,23.45
2019-02-16T06:26:35.028Z,23.80
2019-02-16T06:31:37.982Z,23.12
2019-02-16T06:36:42.029Z,21.37
2019-02-16T06:41:45.265Z,22.05
2019-02-16T06:46:48.491Z,21.48
2019-02-16T06:51:51.440Z,20.43
2019-02-16T06:57:03.999Z,20.37
2019-02-16T07:02:07.081Z,19.87
2019-02-16T07:07:10.090Z,19.02
2019-02-16T07:12:13.213Z,20.68
2019-02-16T07:17:41.797Z,18.37
2019-02-16T07:22:44.803Z,18.30
2019-02-16T07:27:47.877Z,17.62
2019-02-16T07:32:50.859Z,18.62
2019-02-16T07:37:53.931Z,17.37
2019-02-16T07:42:57.904Z,17.65
2019-02-16T07:48:09.092Z,18.25
2019-02-16T07:53:34.647Z,17.92
2019-02-16T07:59:09.225Z,19.15
2019-02-16T08:04:30.465Z,16.80
2019-02-16T08:09:41.774Z,18.85
2019-02-16T08:14:54.016Z,18.12
2019-02-16T08:20:14.299Z,18.98
2019-02-16T08:25:40.076Z,18.62
2019-02-16T08:36:19.754Z,17.57
2019-02-16T08:41:57.645Z,16.07
2019-02-16T08:47:24.112Z,15.55
2019-02-16T08:52:45.352Z,16.32
2019-02-16T08:57:59.245Z,14.83
2019-02-16T09:03:20.453Z,14.73
2019-02-16T09:08:43.111Z,14.60
2019-02-16T09:14:03.912Z,13.88
2019-02-16T09:19:17.876Z,13.10
2019-02-16T09:24:40.504Z,12.95
2019-02-16T09:30:09.333Z,12.18
2019-02-16T09:35:38.123Z,12.78
2019-02-16T09:40:50.134Z,11.15
2019-02-16T09:46:04.451Z,10.88
2019-02-16T09:51:13.434Z,11.15
2019-02-16T09:56:38.245Z,10.90
2019-02-16T10:02:00.581Z,9.53
2019-02-16T10:07:38.145Z,10.50
2019-02-16T10:12:48.215Z,9.83
2019-02-16T10:18:09.207Z,9.30
2019-02-16T10:23:34.858Z,9.25
2019-02-16T10:28:57.404Z,7.47
2019-02-16T10:34:18.731Z,8.70
2019-02-16T10:39:44.044Z,8.23
2019-02-16T10:45:02.034Z,7.80
2019-02-16T10:50:24.088Z,6.95
2019-02-16T10:55:45.566Z,7.60
2019-02-16T11:01:09.161Z,7.45
2019-02-16T11:06:23.314Z,7.08
2019-02-16T11:11:48.892Z,7.35
2019-02-16T11:17:17.306Z,6.65
2019-02-16T11:22:45.657Z,6.95
2019-02-16T11:28:10.946Z,6.10
2019-02-16T11:33:39.608Z,6.43
2019-02-16T11:39:07.531Z,5.75
2019-02-16T11:44:19.241Z,5.97
2019-02-16T11:49:45.021Z,6.55
2019-02-16T11:55:06.314Z,6.80
2019-02-16T12:00:40.088Z,6.03
2019-02-16T12:05:49.077Z,6.10
2019-02-16T12:11:17.415Z,5.83
2019-02-16T12:16:40.018Z,5.40
2019-02-16T12:22:02.562Z,5.87
2019-02-16T12:27:24.236Z,6.90
2019-02-16T12:32:46.770Z,6.60
2019-02-16T12:37:55.673Z,6.50
2019-02-16T12:43:11.906Z,6.37
2019-02-16T12:48:52.460Z,6.17
2019-02-16T12:54:17.965Z,5.78
2019-02-16T12:59:33.625Z,7.17
2019-02-16T13:05:11.567Z,6.97
2019-02-16T13:10:43.143Z,5.75
2019-02-16T13:16:04.797Z,5.87
2019-02-16T13:21:30.260Z,6.80
2019-02-16T13:26:52.797Z,6.17
2019-02-16T13:32:20.251Z,5.90
2019-02-16T13:37:41.444Z,5.95
2019-02-16T13:43:09.695Z,6.15
2019-02-16T13:48:29.559Z,6.92
2019-02-16T13:53:49.523Z,6.72
2019-02-16T13:59:18.236Z,6.70
2019-02-16T14:04:52.888Z,7.10
2019-02-16T14:10:06.170Z,6.83
2019-02-16T14:15:40.888Z,6.55
2019-02-16T14:20:43.881Z,6.75
2019-02-16T14:25:47.923Z,6.95
2019-02-16T14:30:50.983Z,6.72
2019-02-16T14:35:53.953Z,7.03
2019-02-16T14:40:57.302Z,6.55
2019-02-16T14:46:00.407Z,6.87
2019-02-16T14:51:03.665Z,6.90
2019-02-16T14:56:06.633Z,6.42
2019-02-16T15:01:09.582Z,6.37
2019-02-16T15:06:12.543Z,7.08
2019-02-16T15:11:15.503Z,7.15
2019-02-16T15:16:18.485Z,6.97
2019-02-16T15:21:21.676Z,6.87
2019-02-16T15:26:28.546Z,7.25
2019-02-16T15:31:29.756Z,6.78
2019-02-16T15:36:32.840Z,6.42
2019-02-16T15:41:35.807Z,7.17
2019-02-16T15:46:38.745Z,6.12
2019-02-16T15:51:41.704Z,6.95
2019-02-16T15:56:44.710Z,7.25
2019-02-16T16:01:48.692Z,6.60
2019-02-16T16:06:52.132Z,7.33
2019-02-16T16:12:26.816Z,6.70
2019-02-16T16:17:47.874Z,7.47
2019-02-16T16:22:57.880Z,6.97
2019-02-16T16:28:23.368Z,6.65
2019-02-16T16:33:51.846Z,6.65
2019-02-16T16:39:08.975Z,17.95
2019-02-16T16:44:43.874Z,10.10
2019-02-16T16:50:06.436Z,15.88
2019-02-16T16:55:31.734Z,9.65
2019-02-16T17:00:45.114Z,10.17
2019-02-16T17:06:22.890Z,9.60
2019-02-16T17:11:48.211Z,8.38
2019-02-16T17:17:17.040Z,8.30
2019-02-16T17:22:29.215Z,7.08
2019-02-16T17:27:51.896Z,6.25
2019-02-16T17:33:07.517Z,6.15
2019-02-16T17:38:24.359Z,6.35
2019-02-16T17:44:01.804Z,6.30
2019-02-16T17:49:23.222Z,5.60
2019-02-16T17:54:34.030Z,6.17
2019-02-16T17:59:49.519Z,5.50
2019-02-16T18:05:07.421Z,7.33
2019-02-16T18:10:30.130Z,6.33
2019-02-16T18:15:52.699Z,7.97
2019-02-16T18:21:02.411Z,8.05
2019-02-16T18:26:34.138Z,8.88
2019-02-16T18:31:53.323Z,9.75
2019-02-16T18:37:18.970Z,8.85
2019-02-16T18:42:35.285Z,10.80
2019-02-16T18:47:56.377Z,9.68
2019-02-16T18:53:19.391Z,10.46
2019-02-16T18:58:39.492Z,10.40
2019-02-16T19:04:00.776Z,11.20
